Time;durP1;ratioP1;P1;durP2;ratioP2;P2;SDS_P1;SDS_P2;PMS_P1;PMS_P2;Temp;Humidity;BMP_temperature;BMP_pressure;BME280_temperature;BME280_humidity;BME280_pressure;Samples;Min_cycle;Max_cycle;Signal;HPM_P1;HPM_P2
2021/12/06 00:01:01;;;;;;;25.93;11.87;;;;;;;15.84;39.52;101302.34;5032343;28;20065;-70
2021/12/06 00:03:48;;;;;;;21.23;10.60;;;;;;;15.43;40.43;101313.81;5041653;28;20091;-69
2021/12/06 00:06:14;;;;;;;24.40;10.83;;;;;;;16.29;38.95;101310.00;5048795;28;20159;-69
2021/12/06 00:08:40;;;;;;;28.77;12.13;;;;;;;16.25;39.44;101297.78;5049407;28;20484;-70
2021/12/06 00:11:08;;;;;;;28.23;12.43;;;;;;;15.84;40.88;101312.88;5046750;28;20039;-69
2021/12/06 00:13:42;;;;;;;26.53;13.13;;;;;;;15.88;39.27;101319.81;5047386;28;20029;-69
2021/12/06 00:16:13;;;;;;;26.77;12.53;;;;;;;15.81;40.32;101321.72;5028983;28;20124;-70
2021/12/06 00:18:39;;;;;;;22.93;11.10;;;;;;;15.98;39.29;101321.34;5032739;28;20033;-69
2021/12/06 00:21:06;;;;;;;25.93;11.43;;;;;;;16.14;39.19;101327.06;5028368;28;20472;-69
2021/12/06 00:23:32;;;;;;;27.97;11.90;;;;;;;15.68;39.35;101334.31;5030762;28;20113;-69
2021/12/06 00:25:58;;;;;;;25.67;12.30;;;;;;;15.70;40.10;101329.88;5038119;28;20032;-69
2021/12/06 00:28:24;;;;;;;28.80;11.60;;;;;;;16.15;39.37;101334.09;5029030;28;20021;-69
2021/12/06 00:30:51;;;;;;;29.37;12.37;;;;;;;15.03;40.61;101343.63;5028513;28;20071;-69
2021/12/06 00:33:16;;;;;;;21.63;10.57;;;;;;;15.70;40.19;101348.34;5028367;28;20079;-70
2021/12/06 00:35:42;;;;;;;23.43;10.43;;;;;;;15.47;39.98;101345.34;5045062;28;20404;-70
2021/12/06 00:38:07;;;;;;;22.47;9.87;;;;;;;15.43;40.08;101345.41;5046668;28;20036;-69
2021/12/06 00:40:36;;;;;;;26.30;10.07;;;;;;;15.56;40.13;101353.03;5048139;28;20116;-70
2021/12/06 00:43:03;;;;;;;22.00;10.53;;;;;;;15.95;39.07;101345.16;5048285;28;20036;-70
2021/12/06 00:45:29;;;;;;;23.73;10.17;;;;;;;15.80;39.44;101349.03;5030972;28;20029;-69
2021/12/06 00:47:54;;;;;;;21.30;9.57;;;;;;;16.23;38.82;101349.72;5027402;28;20174;-69
2021/12/06 00:50:23;;;;;;;26.80;10.97;;;;;;;15.44;40.45;101357.69;5029896;28;20030;-70
2021/12/06 00:52:49;;;;;;;24.43;11.17;;;;;;;15.66;39.72;101359.84;5028341;28;20108;-69
2021/12/06 00:55:15;;;;;;;24.57;10.07;;;;;;;15.47;40.22;101369.94;5042147;28;20115;-70
2021/12/06 00:57:41;;;;;;;24.73;10.13;;;;;;;15.64;39.62;101366.91;5047861;28;20025;-70
2021/12/06 01:00:22;;;;;;;26.20;11.20;;;;;;;15.89;39.57;101374.28;5047972;28;20502;-70
2021/12/06 01:02:48;;;;;;;22.30;10.37;;;;;;;15.61;39.55;101369.63;5047661;28;20048;-70
2021/12/06 01:05:14;;;;;;;22.50;10.97;;;;;;;15.65;39.54;101376.56;5046548;28;20449;-70
2021/12/06 01:07:40;;;;;;;24.23;10.50;;;;;;;14.98;40.94;101377.06;5044947;28;20032;-70
2021/12/06 01:10:08;;;;;;;26.90;10.50;;;;;;;16.09;38.88;101382.59;5030543;28;20116;-70
2021/12/06 01:12:34;;;;;;;26.30;10.90;;;;;;;16.50;38.33;101381.56;5028442;28;20021;-70
2021/12/06 01:15:00;;;;;;;24.03;10.37;;;;;;;16.78;37.90;101387.84;5027612;28;20029;-70
2021/12/06 01:17:25;;;;;;;27.40;12.53;;;;;;;15.05;40.47;101402.38;5028505;28;20021;-70
2021/12/06 01:19:51;;;;;;;25.40;11.17;;;;;;;15.37;40.41;101405.25;5043137;28;20064;-70
2021/12/06 01:22:24;;;;;;;26.47;10.83;;;;;;;15.60;40.37;101417.94;5046915;28;20032;-70
2021/12/06 01:24:58;;;;;;;25.40;11.50;;;;;;;15.79;39.89;101415.78;5031462;28;20064;-70
2021/12/06 01:40:41;;;;;;;24.50;10.47;;;;;;;15.77;39.15;101418.44;5029557;28;20052;-70
2021/12/06 01:43:07;;;;;;;30.00;12.27;;;;;;;15.97;39.64;101424.19;5027671;28;20236;-69
2021/12/06 01:45:32;;;;;;;27.23;11.53;;;;;;;16.27;39.76;101426.09;5031350;28;20028;-70
2021/12/06 01:47:58;;;;;;;29.47;11.23;;;;;;;15.89;39.70;101430.50;5047643;28;20033;-70
2021/12/06 01:50:28;;;;;;;28.87;11.70;;;;;;;16.00;39.54;101435.53;5031581;28;20037;-72
2021/12/06 01:52:57;;;;;;;28.30;12.37;;;;;;;16.02;39.70;101439.00;5029784;28;20033;-70
2021/12/06 01:55:26;;;;;;;27.30;11.33;;;;;;;16.27;39.09;101439.28;5036246;28;20041;-70
2021/12/06 01:57:53;;;;;;;27.07;12.03;;;;;;;16.34;39.43;101440.00;5028629;28;20033;-70
2021/12/06 02:00:18;;;;;;;29.20;11.67;;;;;;;16.52;38.76;101443.09;5034043;28;20032;-70
2021/12/06 02:02:44;;;;;;;23.93;10.90;;;;;;;16.89;38.43;101431.63;5048616;28;20033;-70
2021/12/06 02:05:09;;;;;;;26.63;11.83;;;;;;;16.55;38.41;101437.72;5042173;28;20484;-70
2021/12/06 02:07:35;;;;;;;36.10;13.13;;;;;;;16.59;38.39;101439.41;5052867;28;20628;-70
2021/12/06 02:10:01;;;;;;;28.77;12.63;;;;;;;16.23;38.92;101436.78;5052363;28;20559;-70
2021/12/06 02:12:29;;;;;;;29.23;12.33;;;;;;;16.65;38.37;101428.69;5049487;28;20396;-70
2021/12/06 02:15:02;;;;;;;25.93;12.53;;;;;;;15.85;39.57;101426.19;5038145;28;20111;-69
2021/12/06 02:17:32;;;;;;;25.20;11.48;;;;;;;15.21;41.58;101426.66;5036018;28;20013;-70
2021/12/06 02:20:04;;;;;;;26.07;11.57;;;;;;;16.05;40.09;101427.53;5049765;28;20094;-70
2021/12/06 02:22:33;;;;;;;24.20;12.43;;;;;;;16.03;39.24;101430.19;5052645;28;20034;-70
2021/12/06 02:24:59;;;;;;;29.57;13.43;;;;;;;15.51;40.58;101431.31;5050838;28;20062;-70
2021/12/06 02:27:28;;;;;;;30.47;12.03;;;;;;;15.22;41.38;101424.88;5050250;28;20025;-70
2021/12/06 02:29:56;;;;;;;31.63;11.80;;;;;;;14.87;41.99;101423.78;5037067;28;20029;-70
2021/12/06 02:32:22;;;;;;;26.97;11.40;;;;;;;16.07;39.53;101423.97;5030580;28;20623;-70
2021/12/06 02:34:50;;;;;;;28.60;12.57;;;;;;;16.39;39.00;101427.56;5030926;28;20044;-70
2021/12/06 02:37:20;;;;;;;29.40;12.40;;;;;;;15.87;39.59;101423.56;5031702;28;20485;-70
2021/12/06 02:39:46;;;;;;;32.87;12.97;;;;;;;15.39;40.80;101422.75;5031804;28;20040;-70
2021/12/06 02:42:15;;;;;;;27.53;11.00;;;;;;;14.37;42.18;101421.09;5030588;28;20029;-70
2021/12/06 02:44:42;;;;;;;30.57;12.87;;;;;;;15.03;41.87;101416.47;5043080;28;20033;-70
2021/12/06 02:47:07;;;;;;;29.97;13.67;;;;;;;15.68;40.23;101413.38;5036490;28;20372;-70
2021/12/06 02:49:33;;;;;;;36.17;13.53;;;;;;;15.97;38.88;101419.78;5034674;28;20498;-70
2021/12/06 02:51:59;;;;;;;32.67;13.90;;;;;;;15.97;38.99;101409.25;5049209;28;20040;-70
2021/12/06 02:54:26;;;;;;;30.20;12.87;;;;;;;16.30;38.64;101417.25;5049681;28;20550;-70
2021/12/06 02:59:19;;;;;;;35.90;14.80;;;;;;;15.30;39.74;101415.03;5045593;28;20468;-70
2021/12/06 03:01:47;;;;;;;36.33;15.63;;;;;;;16.18;39.66;101422.81;5029372;28;20025;-71
2021/12/06 03:04:13;;;;;;;32.60;13.80;;;;;;;16.16;39.13;101429.91;5031660;28;20092;-70
2021/12/06 03:06:42;;;;;;;35.43;14.23;;;;;;;16.36;38.73;101432.94;5035877;28;20082;-70
2021/12/06 03:09:14;;;;;;;33.53;13.63;;;;;;;17.03;37.94;101424.16;5049541;28;20078;-70
2021/12/06 03:11:47;;;;;;;35.43;14.40;;;;;;;17.13;37.75;101419.50;5050550;28;20392;-70
2021/12/06 03:14:20;;;;;;;27.53;10.67;;;;;;;14.81;40.93;101418.63;5048907;28;20398;-70
2021/12/06 03:16:47;;;;;;;36.27;14.17;;;;;;;14.81;42.44;101424.78;5049345;28;20595;-70
2021/12/06 03:19:13;;;;;;;34.20;14.10;;;;;;;15.94;38.90;101419.88;5040364;28;20034;-70
2021/12/06 03:21:39;;;;;;;34.50;13.93;;;;;;;15.84;38.96;101424.47;5056592;28;20507;-69
2021/12/06 03:24:05;;;;;;;37.00;15.50;;;;;;;15.66;39.72;101435.38;5052529;28;20028;-70
2021/12/06 03:26:32;;;;;;;33.07;14.13;;;;;;;15.83;39.49;101437.69;5053298;28;20040;-70
2021/12/06 03:28:57;;;;;;;40.73;16.40;;;;;;;15.55;39.46;101435.59;5044114;28;20021;-70
2021/12/06 03:31:24;;;;;;;33.77;14.77;;;;;;;16.36;38.92;101438.22;5048404;28;20115;-70
2021/12/06 03:33:51;;;;;;;37.07;14.07;;;;;;;16.30;38.09;101434.84;5035797;28;20033;-70
2021/12/06 03:36:19;;;;;;;35.53;14.47;;;;;;;16.33;38.67;101440.91;5036241;28;20100;-70
2021/12/06 03:38:46;;;;;;;39.27;14.67;;;;;;;16.71;37.46;101438.22;5043789;28;20029;-70
2021/12/06 03:41:12;;;;;;;36.30;13.60;;;;;;;16.52;37.51;101443.09;5032294;28;20041;-70
2021/12/06 03:43:39;;;;;;;35.80;14.20;;;;;;;16.69;37.65;101418.91;5050473;28;20028;-70
2021/12/06 03:46:05;;;;;;;41.43;13.90;;;;;;;16.71;37.33;101423.25;5033099;28;20028;-70
2021/12/06 03:48:30;;;;;;;41.07;14.80;;;;;;;16.07;38.50;101437.13;5037817;28;20373;-70
2021/12/06 03:50:56;;;;;;;39.57;12.80;;;;;;;16.34;37.85;101433.88;5052264;28;20036;-70
2021/12/06 03:53:22;;;;;;;36.00;14.60;;;;;;;16.44;37.54;101430.09;5052475;28;20131;-70
2021/12/06 03:55:50;;;;;;;39.23;14.67;;;;;;;16.37;37.64;101439.06;5052253;28;20469;-70
2021/12/06 03:58:16;;;;;;;33.77;14.23;;;;;;;16.25;37.55;101445.50;5040416;28;20055;-70
2021/12/06 04:00:41;;;;;;;33.07;13.60;;;;;;;15.97;37.93;101443.50;5032609;28;20029;-69
2021/12/06 04:03:09;;;;;;;30.40;13.47;;;;;;;15.77;38.50;101455.34;5032206;28;20032;-70
2021/12/06 04:05:34;;;;;;;35.57;13.10;;;;;;;16.00;37.70;101466.31;5032100;28;20017;-70
2021/12/06 04:08:00;;;;;;;40.63;13.77;;;;;;;15.77;37.98;101460.63;5046583;28;20665;-70
2021/12/06 04:10:26;;;;;;;30.77;11.80;;;;;;;14.28;40.81;101466.84;5052344;28;20032;-70
2021/12/06 04:12:55;;;;;;;32.47;13.87;;;;;;;14.52;41.67;101469.97;5051308;28;20033;-70
2021/12/06 04:15:21;;;;;;;38.77;14.13;;;;;;;15.44;39.01;101460.44;5070067;28;20082;-70
2021/12/06 04:17:46;;;;;;;39.13;14.17;;;;;;;15.71;38.52;101460.72;5070029;28;20028;-69
2021/12/06 04:20:12;;;;;;;29.03;11.23;;;;;;;14.18;40.36;101462.63;5064177;28;20080;-70
2021/12/06 04:22:39;;;;;;;25.63;11.43;;;;;;;13.58;43.06;101456.41;5064442;28;20035;-70
2021/12/06 04:25:09;;;;;;;30.23;11.10;;;;;;;13.80;41.68;101458.78;5050582;28;20050;-70
2021/12/06 04:27:35;;;;;;;31.93;10.60;;;;;;;12.59;45.07;101478.41;5035011;28;20040;-69
2021/12/06 04:30:00;;;;;;;35.17;11.10;;;;;;;12.39;44.85;101468.03;5033177;28;20037;-69
2021/12/06 04:32:26;;;;;;;33.03;12.27;;;;;;;12.45;45.32;101480.28;5068061;28;20036;-70
2021/12/06 04:34:52;;;;;;;32.80;12.40;;;;;;;12.37;45.28;101483.78;5051465;28;20522;-70
2021/12/06 04:37:17;;;;;;;30.03;11.60;;;;;;;12.40;45.92;101477.66;5037829;28;20476;-70
2021/12/06 04:39:43;;;;;;;41.00;13.47;;;;;;;13.30;44.53;101484.72;5031135;28;20063;-70
2021/12/06 04:42:08;;;;;;;31.30;12.50;;;;;;;15.57;39.29;101478.63;5031218;28;20108;-70
2021/12/06 04:44:35;;;;;;;33.53;13.70;;;;;;;15.77;38.43;101478.19;5032112;28;20051;-70
2021/12/06 04:47:01;;;;;;;31.63;12.70;;;;;;;16.24;38.16;101478.94;5059361;28;20300;-70
2021/12/06 04:49:29;;;;;;;35.03;14.37;;;;;;;16.31;37.35;101471.75;5051462;28;20036;-70
2021/12/06 04:51:56;;;;;;;39.50;13.87;;;;;;;16.47;37.60;101471.38;5049631;28;20465;-70
2021/12/06 04:54:29;;;;;;;36.47;14.53;;;;;;;16.29;37.71;101473.53;5046575;28;20120;-70
2021/12/06 04:57:24;;;;;;;38.38;13.80;;;;;;;16.60;37.58;101459.59;5057989;28;20032;-70
2021/12/06 04:59:53;;;;;;;36.80;14.13;;;;;;;15.91;39.08;101454.22;5043987;28;20558;-70
2021/12/06 05:02:25;;;;;;;33.53;14.40;;;;;;;15.57;39.45;101449.63;5050103;28;20036;-70
2021/12/06 05:04:53;;;;;;;42.43;15.07;;;;;;;16.24;38.62;101449.91;5043166;28;20036;-70
2021/12/06 05:07:24;;;;;;;37.90;14.47;;;;;;;15.25;40.58;101445.91;5031035;28;20040;-70
2021/12/06 05:09:50;;;;;;;45.37;15.93;;;;;;;15.26;41.06;101455.50;5031182;28;20033;-70
2021/12/06 05:12:20;;;;;;;35.83;14.47;;;;;;;16.06;39.08;101451.22;5032394;28;20032;-70
2021/12/06 05:14:46;;;;;;;35.03;14.67;;;;;;;15.72;39.35;101451.94;5044101;28;20090;-70
2021/12/06 05:17:12;;;;;;;39.90;15.77;;;;;;;16.22;38.27;101453.50;5031447;28;20108;-70
2021/12/06 05:19:38;;;;;;;38.73;15.30;;;;;;;15.90;39.52;101465.66;5031571;28;20122;-70
2021/12/06 05:22:04;;;;;;;43.10;15.67;;;;;;;15.52;39.76;101464.66;5030390;28;20120;-70
2021/12/06 05:24:30;;;;;;;37.50;15.20;;;;;;;14.68;41.96;101474.09;5033992;28;20036;-70
2021/12/06 05:26:56;;;;;;;43.97;15.87;;;;;;;16.10;39.23;101473.09;5050921;28;20078;-70
2021/12/06 05:29:26;;;;;;;42.97;16.77;;;;;;;16.15;39.28;101470.38;5045490;28;20063;-70
2021/12/06 05:31:56;;;;;;;43.13;15.63;;;;;;;15.69;40.46;101467.81;5031569;28;20456;-70
2021/12/06 05:34:30;;;;;;;40.50;14.73;;;;;;;15.93;39.78;101473.47;5053241;28;20021;-71
2021/12/06 05:36:56;;;;;;;42.23;15.53;;;;;;;15.74;39.72;101473.88;5053976;28;20393;-70
2021/12/06 05:39:22;;;;;;;35.73;15.00;;;;;;;15.69;40.06;101462.56;5045818;28;20059;-70
2021/12/06 05:41:48;;;;;;;36.97;15.30;;;;;;;13.99;42.69;101481.28;5052943;28;20444;-70
2021/12/06 05:44:13;;;;;;;36.67;14.47;;;;;;;15.42;40.44;101470.09;5040053;28;20115;-70
2021/12/06 05:46:38;;;;;;;38.57;15.93;;;;;;;15.09;40.93;101477.75;5072206;28;20358;-70
2021/12/06 05:49:04;;;;;;;40.63;15.23;;;;;;;16.03;38.89;101492.59;5054191;28;20044;-70
2021/12/06 05:51:30;;;;;;;40.80;14.97;;;;;;;15.99;39.41;101490.94;5054585;28;20456;-70
2021/12/06 05:53:55;;;;;;;40.27;16.93;;;;;;;16.43;38.39;101492.56;5051608;28;20067;-70
2021/12/06 05:56:21;;;;;;;39.80;15.60;;;;;;;16.01;39.47;101489.16;5034322;28;20041;-69
2021/12/06 05:58:47;;;;;;;42.77;16.93;;;;;;;15.67;40.11;101485.41;5034911;28;20139;-70
2021/12/06 06:01:13;;;;;;;37.83;15.63;;;;;;;15.84;40.05;101485.09;5034699;28;20555;-70
2021/12/06 06:03:39;;;;;;;40.20;15.90;;;;;;;15.28;40.80;101493.22;5034344;28;20056;-70
2021/12/06 06:06:04;;;;;;;40.67;15.47;;;;;;;16.46;38.46;101491.63;5051330;28;20068;-70
2021/12/06 06:08:30;;;;;;;44.43;15.97;;;;;;;15.93;39.37;101495.44;5055133;28;20036;-70
2021/12/06 06:10:55;;;;;;;34.73;14.67;;;;;;;15.67;40.25;101485.41;5071479;28;20107;-70
2021/12/06 06:13:21;;;;;;;42.13;16.27;;;;;;;15.06;40.41;101492.78;5072563;28;20032;-70
2021/12/06 06:15:51;;;;;;;39.80;16.07;;;;;;;15.65;39.57;101483.72;5069136;28;20016;-70
2021/12/06 06:18:17;;;;;;;39.90;16.13;;;;;;;15.46;40.32;101485.88;5070695;28;20085;-70
2021/12/06 06:20:49;;;;;;;44.27;14.77;;;;;;;15.66;39.90;101486.34;5054121;28;20135;-69
2021/12/06 06:23:15;;;;;;;41.42;16.00;;;;;;;15.90;39.31;101495.50;5054283;28;20033;-70
2021/12/06 06:25:41;;;;;;;42.70;16.00;;;;;;;15.76;39.27;101493.13;5047938;28;20428;-70
2021/12/06 06:28:06;;;;;;;43.30;16.40;;;;;;;15.15;40.90;101497.00;5053570;28;20546;-70
2021/12/06 06:30:32;;;;;;;37.57;15.07;;;;;;;15.32;39.72;101494.03;5035329;28;20107;-70
2021/12/06 06:32:57;;;;;;;38.47;15.07;;;;;;;14.71;41.44;101497.75;5033092;28;20118;-69
2021/12/06 06:35:24;;;;;;;43.57;17.17;;;;;;;15.04;40.87;101489.28;5050703;28;20494;-70
2021/12/06 06:37:50;;;;;;;37.50;15.70;;;;;;;15.63;40.07;101489.00;5053487;28;20043;-70
2021/12/06 06:40:16;;;;;;;40.80;15.60;;;;;;;15.67;39.84;101495.94;5060306;28;20076;-70
2021/12/06 06:42:43;;;;;;;38.30;14.90;;;;;;;15.53;40.38;101503.28;5040768;28;20025;-69
2021/12/06 06:45:10;;;;;;;42.43;16.67;;;;;;;14.66;41.46;101504.84;5062141;28;20385;-70
2021/12/06 06:47:36;;;;;;;53.47;18.57;;;;;;;14.57;41.91;101510.22;5053362;28;20058;-70
2021/12/06 06:50:02;;;;;;;37.73;15.00;;;;;;;15.49;39.95;101509.53;5056389;28;20060;-70
2021/12/06 06:52:28;;;;;;;40.83;15.83;;;;;;;14.05;42.19;101523.25;5035102;28;20495;-70
2021/12/06 06:54:53;;;;;;;45.00;16.27;;;;;;;14.38;41.94;101514.91;5044454;28;20020;-70
2021/12/06 06:57:18;;;;;;;48.20;17.70;;;;;;;14.09;42.42;101521.44;5053681;28;20418;-70
2021/12/06 06:59:45;;;;;;;40.97;16.23;;;;;;;14.94;40.64;101525.44;5045944;28;20024;-69
2021/12/06 07:02:12;;;;;;;39.20;15.33;;;;;;;12.63;45.84;101529.94;5052425;28;20029;-69
2021/12/06 07:04:37;;;;;;;38.60;15.93;;;;;;;13.97;43.31;101526.84;5051702;28;20073;-70
2021/12/06 07:07:03;;;;;;;42.07;16.40;;;;;;;14.30;42.49;101522.91;5064484;28;20033;-70
2021/12/06 07:09:28;;;;;;;47.90;15.13;;;;;;;14.10;42.56;101527.59;5053464;28;20155;-70
2021/12/06 07:11:54;;;;;;;45.43;16.27;;;;;;;14.13;42.89;101524.91;5051374;28;20123;-70
2021/12/06 07:14:20;;;;;;;44.77;14.20;;;;;;;14.33;42.43;101512.34;5032780;28;20017;-70
2021/12/06 07:16:48;;;;;;;49.63;16.13;;;;;;;13.92;43.61;101519.03;5071503;28;20028;-69
2021/12/06 07:19:14;;;;;;;39.57;16.23;;;;;;;13.19;45.06;101522.47;5052724;28;20484;-70
2021/12/06 07:21:39;;;;;;;44.27;15.67;;;;;;;12.60;46.03;101516.84;5048529;28;20082;-70
2021/12/06 07:24:05;;;;;;;43.00;15.77;;;;;;;13.40;44.25;101503.00;5038231;28;20028;-69
2021/12/06 07:26:31;;;;;;;42.10;14.37;;;;;;;13.35;44.35;101493.41;5044256;28;20025;-69
2021/12/06 07:28:56;;;;;;;38.70;15.60;;;;;;;13.17;45.83;101502.34;5052046;28;20081;-70
2021/12/06 07:31:23;;;;;;;43.83;15.47;;;;;;;12.71;46.11;101506.28;5069878;28;20724;-70
2021/12/06 07:33:50;;;;;;;46.00;14.47;;;;;;;12.33;45.94;101503.03;5052740;28;20029;-69
2021/12/06 07:36:17;;;;;;;38.17;14.47;;;;;;;13.29;45.93;101499.59;5051731;28;20136;-70
2021/12/06 07:38:42;;;;;;;40.90;14.70;;;;;;;14.62;42.24;101497.88;5045322;28;20032;-69
2021/12/06 07:41:14;;;;;;;51.73;18.10;;;;;;;13.72;44.03;101495.63;5041031;28;20032;-69
2021/12/06 07:43:40;;;;;;;58.90;20.23;;;;;;;12.59;46.77;101488.03;5047222;28;20454;-69
2021/12/06 07:46:06;;;;;;;43.53;16.30;;;;;;;13.68;44.86;101481.69;5039045;28;20511;-69
2021/12/06 07:48:32;;;;;;;44.30;16.07;;;;;;;13.61;44.86;101485.25;5038710;28;20480;-69
2021/12/06 07:51:05;;;;;;;46.70;18.70;;;;;;;14.17;43.79;101480.13;5042338;28;20028;-69
2021/12/06 07:53:33;;;;;;;50.83;17.47;;;;;;;13.71;43.82;101492.16;5051829;28;20040;-69
2021/12/06 07:55:59;;;;;;;47.17;17.83;;;;;;;12.94;46.07;101500.84;5060712;28;20021;-70
2021/12/06 07:58:25;;;;;;;49.17;18.27;;;;;;;13.42;45.52;101492.47;5045829;28;20021;-70
2021/12/06 08:00:52;;;;;;;47.50;18.50;;;;;;;13.28;45.01;101497.84;5034465;28;20052;-69
2021/12/06 08:03:22;;;;;;;60.33;18.90;;;;;;;14.04;44.89;101489.97;5049429;28;20021;-69
2021/12/06 08:05:49;;;;;;;52.70;20.57;;;;;;;13.73;43.65;101492.13;5042614;28;20021;-69
2021/12/06 08:08:16;;;;;;;57.93;19.73;;;;;;;13.95;44.16;101497.97;5070087;28;20032;-71
2021/12/06 08:10:48;;;;;;;49.13;16.57;;;;;;;14.33;43.15;101496.56;5050885;28;20119;-69
2021/12/06 08:13:17;;;;;;;51.87;19.63;;;;;;;13.92;43.76;101490.13;5070344;28;20028;-69
2021/12/06 08:15:43;;;;;;;46.23;18.27;;;;;;;14.25;43.79;101490.56;5045590;28;20099;-69
2021/12/06 08:18:09;;;;;;;50.70;17.40;;;;;;;15.24;41.38;101488.94;5035883;28;20025;-70
2021/12/06 08:20:36;;;;;;;52.47;18.80;;;;;;;14.46;42.68;101509.53;5043614;28;20040;-70
2021/12/06 08:23:03;;;;;;;50.23;17.83;;;;;;;14.61;43.14;101516.31;5069392;28;20066;-70
2021/12/06 08:25:28;;;;;;;53.07;18.47;;;;;;;14.73;42.17;101518.78;5050932;28;20041;-70
2021/12/06 08:27:53;;;;;;;53.57;18.63;;;;;;;13.34;45.57;101518.81;5040653;28;20484;-70
2021/12/06 08:30:22;;;;;;;53.20;18.80;;;;;;;13.93;44.14;101518.16;5031892;28;20032;-70
2021/12/06 08:32:58;;;;;;;53.30;19.80;;;;;;;12.95;47.53;101523.56;5049271;28;20021;-69
2021/12/06 08:35:26;;;;;;;51.77;17.53;;;;;;;14.51;43.45;101528.75;5041464;28;20055;-69
2021/12/06 08:37:52;;;;;;;65.40;18.33;;;;;;;14.28;43.27;101522.06;5062583;28;20028;-69
2021/12/06 08:40:20;;;;;;;55.93;17.90;;;;;;;14.07;42.89;101531.97;5058088;28;20040;-69
2021/12/06 08:42:45;;;;;;;63.47;18.80;;;;;;;13.89;43.94;101519.09;5053469;28;20029;-69
2021/12/06 08:45:12;;;;;;;55.77;18.80;;;;;;;13.24;46.16;101522.41;5042591;28;20028;-69
2021/12/06 08:47:39;;;;;;;57.13;18.90;;;;;;;14.27;43.79;101519.44;5047911;28;20074;-70
2021/12/06 08:50:08;;;;;;;64.87;20.27;;;;;;;14.32;42.75;101515.84;5047510;28;20027;-69
2021/12/06 08:52:33;;;;;;;62.20;20.77;;;;;;;14.32;42.24;101515.84;5045874;28;20025;-69
2021/12/06 08:54:59;;;;;;;64.70;19.97;;;;;;;14.24;43.31;101509.84;5050243;28;20035;-70
2021/12/06 08:57:25;;;;;;;63.80;19.77;;;;;;;15.20;41.00;101508.31;5045449;28;20392;-70
2021/12/06 08:59:52;;;;;;;60.93;19.37;;;;;;;14.26;42.86;101515.97;5032926;28;20029;-70
2021/12/06 09:02:17;;;;;;;62.37;18.70;;;;;;;14.15;43.76;101513.47;4990246;28;20117;-69
2021/12/06 09:04:44;;;;;;;56.10;19.10;;;;;;;14.48;43.37;101515.63;5037094;28;20017;-70
2021/12/06 09:07:13;;;;;;;61.30;19.37;;;;;;;14.63;43.00;101504.91;5059259;28;20020;-70
2021/12/06 09:09:48;;;;;;;72.47;21.53;;;;;;;14.07;43.63;101500.44;5074731;28;20040;-69
2021/12/06 09:12:16;;;;;;;68.90;21.37;;;;;;;14.96;41.54;101509.59;5051177;28;20012;-70
2021/12/06 09:14:42;;;;;;;67.03;21.07;;;;;;;13.63;44.23;101504.53;5048059;28;20024;-69
2021/12/06 09:17:07;;;;;;;72.77;22.30;;;;;;;14.12;43.52;101496.88;5040658;28;20063;-69
2021/12/06 09:19:33;;;;;;;72.37;19.90;;;;;;;13.99;43.48;101502.31;5051959;28;20123;-70
2021/12/06 09:21:58;;;;;;;70.10;23.23;;;;;;;14.06;43.37;101498.69;5091563;28;20024;-69
2021/12/06 09:24:24;;;;;;;65.20;20.33;;;;;;;14.87;41.99;101500.13;5051799;28;20042;-70
2021/12/06 09:26:49;;;;;;;73.70;23.70;;;;;;;14.71;42.58;101495.13;5048039;28;20040;-70
2021/12/06 09:29:16;;;;;;;80.07;23.77;;;;;;;14.66;42.14;101494.31;5068565;28;20098;-70
2021/12/06 09:31:43;;;;;;;76.97;24.70;;;;;;;14.30;42.84;101490.47;5054325;28;20029;-70
2021/12/06 09:34:09;;;;;;;64.40;22.23;;;;;;;12.68;46.09;101490.53;5054019;28;20024;-70
2021/12/06 09:36:35;;;;;;;73.90;20.80;;;;;;;12.50;48.05;101494.19;5061647;28;20032;-69
2021/12/06 09:39:02;;;;;;;73.60;20.77;;;;;;;11.01;51.67;101507.88;5054193;28;20036;-69
2021/12/06 09:41:28;;;;;;;69.30;22.03;;;;;;;11.29;52.65;101517.44;5071986;28;20431;-69
2021/12/06 09:43:57;;;;;;;71.20;19.27;;;;;;;11.59;51.44;101521.72;5054855;28;20025;-69
2021/12/06 09:46:23;;;;;;;62.73;19.90;;;;;;;11.63;50.07;101523.44;5046001;28;20036;-70
2021/12/06 09:48:50;;;;;;;66.07;20.77;;;;;;;12.27;49.97;101521.44;5042796;28;20492;-69
2021/12/06 09:51:22;;;;;;;65.33;19.37;;;;;;;12.69;48.73;101518.53;5053743;28;20024;-69
2021/12/06 09:53:50;;;;;;;59.83;19.10;;;;;;;12.21;50.16;101522.34;5054486;28;20460;-70
2021/12/06 09:56:19;;;;;;;62.90;20.50;;;;;;;11.66;50.85;101523.47;5045262;28;20029;-70
2021/12/06 09:58:46;;;;;;;62.23;18.73;;;;;;;11.77;50.71;101514.69;5057763;28;20020;-69
2021/12/06 10:01:21;;;;;;;65.20;19.00;;;;;;;11.75;51.04;101511.22;5048269;28;20405;-69
2021/12/06 10:03:48;;;;;;;64.53;18.30;;;;;;;11.73;49.80;101515.56;5053785;28;20028;-70
2021/12/06 10:06:18;;;;;;;48.73;15.33;;;;;;;11.38;50.90;101518.28;5048605;28;20025;-70
2021/12/06 10:08:46;;;;;;;58.33;18.63;;;;;;;12.15;47.84;101513.66;5048730;28;20025;-70
2021/12/06 10:11:15;;;;;;;57.07;19.03;;;;;;;12.43;48.47;101508.22;5052407;28;20033;-70
2021/12/06 10:13:41;;;;;;;50.17;15.77;;;;;;;12.60;46.72;101497.59;5051631;28;20032;-69
2021/12/06 10:16:08;;;;;;;54.73;17.53;;;;;;;10.41;53.15;101491.31;5053242;28;20287;-72
2021/12/06 10:18:34;;;;;;;46.80;14.73;;;;;;;10.18;53.28;101486.91;5071191;28;20036;-70
2021/12/06 10:21:01;;;;;;;48.20;15.20;;;;;;;11.24;52.04;101483.44;5055494;28;20049;-72
2021/12/06 10:23:27;;;;;;;53.90;16.63;;;;;;;10.97;53.06;101477.38;5039109;28;20404;-71
2021/12/06 10:25:55;;;;;;;61.87;17.67;;;;;;;11.78;49.76;101466.66;5040740;28;20108;-71
2021/12/06 10:28:28;;;;;;;52.53;15.60;;;;;;;12.04;50.27;101462.16;5035407;28;20029;-72
2021/12/06 10:31:04;;;;;;;54.73;16.57;;;;;;;10.06;56.47;101460.78;5039746;28;20024;-71
2021/12/06 10:33:33;;;;;;;49.73;16.23;;;;;;;11.13;52.45;101453.81;5048730;28;20024;-71
2021/12/06 10:36:08;;;;;;;54.50;16.93;;;;;;;11.67;51.73;101444.00;5053396;28;20024;-71
2021/12/06 10:38:40;;;;;;;60.63;16.53;;;;;;;10.89;54.45;101437.28;5052072;28;20480;-71
2021/12/06 10:41:12;;;;;;;65.20;21.90;;;;;;;12.81;49.83;101431.00;5036269;28;20125;-72
2021/12/06 10:43:39;;;;;;;59.85;19.48;;;;;;;13.58;45.47;101411.75;5040937;28;20040;-71
2021/12/06 10:46:07;;;;;;;55.40;17.00;;;;;;;13.70;44.33;101408.97;5033834;28;20155;-72
2021/12/06 10:48:35;;;;;;;60.40;17.43;;;;;;;14.36;42.87;101407.09;5030248;28;20017;-71
2021/12/06 10:51:14;;;;;;;53.80;17.27;;;;;;;13.82;44.05;101397.44;5047891;28;20518;-71
2021/12/06 10:53:45;;;;;;;45.80;15.90;;;;;;;13.79;42.81;101389.56;5068709;28;20126;-71
2021/12/06 10:56:25;;;;;;;58.20;16.33;;;;;;;13.56;43.29;101392.53;5047729;28;20135;-71
2021/12/06 10:58:54;;;;;;;40.67;13.10;;;;;;;11.71;46.43;101395.97;5057605;28;20020;-71
2021/12/06 11:01:28;;;;;;;42.27;15.50;;;;;;;9.63;55.29;101394.50;5052543;28;20040;-71
2021/12/06 11:03:56;;;;;;;51.90;17.70;;;;;;;11.66;51.03;101386.41;5055118;28;20063;-72
2021/12/06 11:06:31;;;;;;;52.60;18.10;;;;;;;12.98;46.36;101384.47;5032440;28;20041;-71
2021/12/06 11:09:00;;;;;;;54.43;16.67;;;;;;;13.04;44.89;101379.13;5033287;28;20531;-71
2021/12/06 11:11:30;;;;;;;45.33;14.20;;;;;;;12.87;45.08;101373.19;5066192;28;20040;-71
2021/12/06 11:14:14;;;;;;;54.47;17.97;;;;;;;12.20;48.85;101378.22;5039875;28;20036;-72
2021/12/06 11:16:43;;;;;;;55.03;16.07;;;;;;;11.10;48.67;101377.94;5055780;28;20052;-71
2021/12/06 11:19:12;;;;;;;47.97;14.67;;;;;;;11.42;50.35;101366.47;5032506;28;20480;-71
2021/12/06 11:22:00;;;;;;;42.50;13.50;;;;;;;11.10;48.28;101364.84;5042016;28;20444;-72
2021/12/06 11:24:37;;;;;;;44.97;15.27;;;;;;;11.82;48.91;101359.25;5045778;28;20086;-71
2021/12/06 11:27:08;;;;;;;44.83;15.07;;;;;;;11.96;47.15;101356.56;5042391;28;20415;-71